Latest Weather Observations for Aireys Inlet

IDV60801

Issued at 8:32 pm EDT Thursday 8 December 2016 (issued every 30 minutes, with the page automatically refreshed every 10 minutes)

About weather observations | Map of weather stations | Latest weather observations for VIC | Other Formats
Station Details ID: 090180 Name: AIREYS INLET Lat: -38.46 Lon: 144.09 Height: 105.0 m
Data from the previous 72 hours. | See also: Recent months at Aireys Inlet
Date/Time
EDT
Temp
°C
App
Temp
°C
Dew
Point
°C
Rel
Hum
%
Delta-T
°C
Wind Press
QNH
hPa
Press
MSL
hPa
Rain since
9am
mm
Dir  Spd
km/h
Gust
km/h
Spd
kts
Gust
kts
08/08:30pm 13.5 9.4 7.9 69 2.8 W 19 33 10 18 - - 0.2
08/08:00pm 13.9 9.0 8.3 69 2.8 WSW 24 33 13 18 - - 0.2
08/07:30pm 14.1 8.1 8.7 70 2.7 WSW 30 48 16 26 - - 0.2
08/07:29pm 14.1 8.1 8.7 70 2.7 WSW 30 48 16 26 - - 0.2
08/07:00pm 14.9 8.6 8.8 67 3.1 SW 32 43 17 23 - - 0.2
08/06:30pm 14.7 7.6 9.5 71 2.7 SW 37 52 20 28 - - 0.2
08/06:00pm 15.3 8.4 8.8 65 3.3 W 35 57 19 31 - - 0.2
08/05:37pm 16.1 10.4 8.3 60 4.0 W 28 52 15 28 - - 0.2
08/05:30pm 16.4 10.7 8.4 59 4.1 W 28 44 15 24 - - 0.2
08/05:00pm 16.0 8.8 9.2 64 3.5 W 37 69 20 37 - - 0.2
08/04:59pm 16.1 9.3 9.3 64 3.5 W 35 69 19 37 - - 0.2
08/04:48pm 16.5 10.9 8.7 60 4.0 W 28 48 15 26 - - 0.2
08/04:30pm 18.0 13.0 9.4 57 4.5 W 26 48 14 26 - - 0.2
08/04:00pm 17.0 12.1 11.3 69 3.1 W 28 54 15 29 - - 0.2
08/03:30pm 18.4 8.3 7.5 49 5.5 WNW 50 83 27 45 - - 0.2
08/03:00pm 18.7 8.1 8.4 51 5.3 WNW 54 89 29 48 - - 0.2
08/02:36pm 19.0 8.6 7.8 48 5.8 WNW 52 106 28 57 - - 0.2
08/02:30pm 19.0 8.3 8.1 49 5.6 WNW 54 87 29 47 - - 0.2
08/02:00pm 19.1 7.7 7.5 47 5.9 WNW 57 83 31 45 - - 0.2
08/01:50pm 19.2 6.7 7.6 47 5.9 WNW 63 98 34 53 - - 0.2
08/01:49pm 19.3 6.9 8.0 48 5.8 WNW 63 98 34 53 - - 0.2
08/01:43pm 19.1 6.9 7.5 47 5.9 WNW 61 98 33 53 - - 0.2
08/01:30pm 19.3 8.5 7.7 47 6.0 WNW 54 96 29 52 - - 0.2
08/01:00pm 19.7 9.2 7.4 45 6.3 WNW 52 91 28 49 - - 0.2
08/12:50pm 19.4 8.1 7.2 45 6.2 WNW 56 91 30 49 - - 0.2
08/12:49pm 19.2 7.9 7.0 45 6.2 WNW 56 91 30 49 - - 0.2
08/12:46pm 18.7 7.0 6.2 44 6.2 WNW 57 91 31 49 - - 0.2
08/12:41pm 19.0 7.5 7.1 46 6.0 WNW 57 95 31 51 - - 0.2
08/12:30pm 18.4 5.3 6.9 47 5.8 NW 65 100 35 54 - - 0.2
08/12:00pm 18.2 8.2 7.9 51 5.3 WNW 50 87 27 47 - - 0.2
08/11:30am 17.3 8.5 8.2 55 4.7 NW 44 74 24 40 - - 0.2
08/11:01am 16.8 7.6 8.2 57 4.4 NW 46 91 25 49 - - 0.2
08/11:00am 16.8 8.3 8.5 58 4.3 NW 43 70 23 38 - - 0.2
08/10:30am 16.3 6.8 9.9 66 3.4 WNW 50 76 27 41 - - 0.2
08/10:00am 16.0 7.8 10.5 70 2.9 WNW 44 72 24 39 - - 0.2
08/09:30am 16.4 9.6 10.5 68 3.1 WNW 37 61 20 33 - - 0.2
08/09:00am 18.2 13.2 16.2 88 1.2 NNW 37 63 20 34 - - 6.2
08/08:59am 18.2 13.6 16.2 88 1.2 NNW 35 63 19 34 - - 6.2
08/08:58am 18.3 13.8 16.3 88 1.2 NNW 35 63 19 34 - - 6.2
08/08:30am 18.0 12.3 17.2 95 0.5 N 43 70 23 38 - - 6.2
08/08:03am 17.2 12.4 16.6 96 0.4 N 37 59 20 32 - - 6.2
08/08:00am 17.0 12.5 16.4 96 0.4 N 35 52 19 28 - - 6.2
08/07:30am 16.4 10.5 15.8 96 0.4 N 41 59 22 32 - - 5.8
08/07:02am 16.5 10.3 14.9 90 0.9 N 41 61 22 33 - - 3.0
08/07:00am 16.4 10.2 14.8 90 0.9 N 41 57 22 31 - - 3.0
08/06:30am 16.8 10.0 14.3 85 1.4 N 43 63 23 34 - - 2.0
08/06:00am 18.4 11.3 13.5 73 2.8 NNW 43 70 23 38 - - 0.4
08/05:30am 22.3 13.2 11.1 49 6.2 NNW 50 83 27 45 - - 0.0
08/05:19am 23.9 15.3 8.3 37 8.3 NNW 43 85 23 46 - - 0.0
08/05:00am 24.2 16.4 8.2 36 8.5 NNW 39 57 21 31 - - 0.0
08/04:49am 23.6 16.4 7.7 36 8.4 NNW 35 61 19 33 - - 0.0
08/04:30am 22.8 15.5 7.4 37 8.0 N 35 52 19 28 - - 0.0
08/04:15am 22.1 15.3 7.5 39 7.6 N 33 52 18 28 - - 0.0
08/04:00am 21.8 15.0 7.6 40 7.4 N 33 46 18 25 - - 0.0
08/03:30am 21.1 15.2 7.3 41 7.1 N 28 41 15 22 - - 0.0
08/03:00am 20.7 16.2 8.4 45 6.5 N 22 39 12 21 - - 0.0
08/02:30am 18.4 15.0 10.5 60 4.3 NNE 19 26 10 14 - - 0.0
08/02:00am 16.9 13.9 12.6 76 2.4 NNE 20 26 11 14 - - 0.0
08/01:30am 17.1 14.4 13.6 80 2.0 NNE 20 30 11 16 - - 0.0
08/01:00am 16.2 13.3 12.4 78 2.1 NNE 19 26 10 14 - - 0.0
08/12:30am 15.5 13.2 11.9 79 2.0 NNE 15 20 8 11 - - 0.0
08/12:00am 13.7 12.2 10.7 82 1.6 N 9 13 5 7 - - 0.0
 
Date/Time
EDT
Temp
°C
App
Temp
°C
Dew
Point
°C
Rel
Hum
%
Delta-T
°C
Wind Press
QNH
hPa
Press
MSL
hPa
Rain since
9am
mm
Dir  Spd
km/h
Gust
km/h
Spd
kts
Gust
kts
07/11:30pm 14.4 13.6 11.0 80 1.8 NNW 6 7 3 4 - - 0.0
07/11:00pm 14.2 13.2 11.0 81 1.7 NNW 7 9 4 5 - - 0.0
07/10:30pm 14.6 15.1 11.6 82 1.6 CALM 0 0 0 0 - - 0.0
07/10:00pm 14.9 15.1 11.9 82 1.6 E 2 6 1 3 - - 0.0
07/09:30pm 14.7 14.3 11.1 79 1.9 E 4 9 2 5 - - 0.0
07/09:00pm 15.2 14.4 11.0 76 2.2 ESE 6 9 3 5 - - 0.0
07/08:30pm 15.6 14.6 10.2 70 2.8 ESE 6 9 3 5 - - 0.0
07/08:00pm 16.3 15.1 10.2 67 3.2 ESE 7 13 4 7 - - 0.0
07/07:30pm 17.1 15.9 10.2 64 3.7 E 7 13 4 7 - - 0.0
07/07:00pm 17.7 16.1 10.1 61 4.1 E 9 13 5 7 - - 0.0
07/06:30pm 18.3 16.5 9.4 56 4.7 ESE 9 13 5 7 - - 0.0
07/06:00pm 18.7 16.8 8.9 53 5.1 E 9 13 5 7 - - 0.0
07/05:30pm 19.3 17.4 9.2 52 5.3 E 9 13 5 7 - - 0.0
07/05:00pm 19.0 16.6 8.6 51 5.4 E 11 17 6 9 - - 0.0
07/04:30pm 19.3 16.5 8.6 50 5.6 E 13 22 7 12 - - 0.0
07/04:00pm 20.0 17.5 8.0 46 6.2 E 11 19 6 10 - - 0.0
07/03:30pm 19.6 16.3 8.0 47 6.0 E 15 20 8 11 - - 0.0
07/03:00pm 19.9 17.3 7.6 45 6.3 E 11 19 6 10 - - 0.0
07/02:30pm 19.4 16.2 8.4 49 5.7 E 15 22 8 12 - - 0.0
07/02:00pm 19.6 16.4 10.0 54 5.2 E 17 26 9 14 - - 0.0
07/01:30pm 19.6 16.3 9.5 52 5.4 ESE 17 24 9 13 - - 0.0
07/01:00pm 19.2 15.6 8.5 50 5.6 ESE 17 26 9 14 - - 0.0
07/12:30pm 19.4 16.2 8.4 49 5.7 E 15 26 8 14 - - 0.0
07/12:00pm 19.1 15.7 7.8 48 5.8 E 15 26 8 14 - - 0.0
07/11:30am 18.6 15.7 9.7 56 4.7 E 15 20 8 11 - - 0.0
07/11:00am 18.4 15.4 9.2 55 4.8 E 15 20 8 11 - - 0.0
07/10:30am 18.6 16.6 8.6 52 5.2 SE 9 15 5 8 - - 0.0
07/10:00am 18.4 16.6 7.8 50 5.4 S 7 11 4 6 - - 0.0
07/09:30am 17.9 16.2 8.5 54 4.9 SSE 7 9 4 5 - - 0.0
07/09:00am 16.4 15.5 9.1 62 3.8 NNE 4 11 2 6 - - 0.0
07/08:30am 15.0 13.5 8.3 64 3.4 N 6 11 3 6 - - 0.0
07/08:00am 13.8 12.7 8.4 70 2.7 N 4 7 2 4 - - 0.0
07/07:30am 12.5 10.0 8.4 76 2.0 NW 11 15 6 8 - - 0.0
07/07:00am 11.2 8.2 7.9 80 1.6 NW 13 17 7 9 - - 0.0
07/06:30am 10.3 6.8 7.4 82 1.4 NW 15 19 8 10 - - 0.0
07/06:00am 10.3 7.3 7.7 84 1.3 NNW 13 19 7 10 - - 0.0
07/05:30am 9.8 5.5 7.2 84 1.2 NW 19 22 10 12 - - 0.0
07/05:00am 9.7 5.4 7.1 84 1.2 NW 19 22 10 12 - - 0.0
07/04:30am 9.6 5.7 7.0 84 1.2 NW 17 20 9 11 - - 0.0
07/04:00am 10.7 7.2 7.2 79 1.7 NW 15 20 8 11 - - 0.0
07/03:30am 10.4 6.5 7.1 80 1.6 NW 17 20 9 11 - - 0.0
07/03:00am 10.1 5.8 7.0 81 1.5 NW 19 24 10 13 - - 0.0
07/02:30am 10.0 5.6 6.5 79 1.6 NW 19 24 10 13 - - 0.0
07/02:00am 9.9 5.4 6.1 77 1.8 NW 19 22 10 12 - - 0.0
07/01:30am 10.0 5.9 6.2 77 1.8 NW 17 20 9 11 - - 0.0
07/01:00am 10.4 7.1 6.4 76 1.9 NNW 13 17 7 9 - - 0.0
07/12:30am 10.0 6.8 6.7 80 1.6 NNW 13 15 7 8 - - 0.0
07/12:00am 10.8 8.3 6.7 76 1.9 NW 9 11 5 6 - - 0.0
 
Date/Time
EDT
Temp
°C
App
Temp
°C
Dew
Point
°C
Rel
Hum
%
Delta-T
°C
Wind Press
QNH
hPa
Press
MSL
hPa
Rain since
9am
mm
Dir  Spd
km/h
Gust
km/h
Spd
kts
Gust
kts
06/11:30pm 10.5 8.0 6.6 77 1.8 NNW 9 13 5 7 - - 0.0
06/11:00pm 11.0 8.7 7.3 78 1.8 NNW 9 11 5 6 - - 0.0
06/10:30pm 11.6 9.8 8.1 79 1.7 NNW 7 9 4 5 - - 0.0
06/10:00pm 12.3 10.6 8.4 77 1.9 NNW 7 9 4 5 - - 0.0
06/09:30pm 13.3 11.5 8.0 70 2.6 WSW 7 11 4 6 - - 0.0
06/09:00pm 14.0 10.0 8.4 69 2.8 SSW 19 28 10 15 - - 0.0
06/08:30pm 14.1 10.4 8.1 67 3.0 SSW 17 24 9 13 - - 0.0
06/08:00pm 15.1 11.0 7.9 62 3.6 SSW 19 30 10 16 - - 0.0
06/07:30pm 16.4 12.7 8.1 58 4.2 SSW 17 28 9 15 - - 0.0
06/07:00pm 16.8 12.7 8.8 59 4.1 SSW 20 28 11 15 - - 0.0
06/06:30pm 17.4 13.3 8.8 57 4.5 SSW 20 35 11 19 - - 0.0
06/06:00pm 17.7 12.8 8.3 54 4.8 SSW 24 37 13 20 - - 0.0
06/05:30pm 18.6 13.7 8.6 52 5.2 SSW 24 35 13 19 - - 0.0
06/05:00pm 17.8 12.7 7.5 51 5.2 SSW 24 33 13 18 - - 0.0
06/04:30pm 18.6 14.3 8.0 50 5.5 SSW 20 33 11 18 - - 0.0
06/04:00pm 18.9 14.7 8.3 50 5.5 S 20 30 11 16 - - 0.0
06/03:30pm 18.8 14.9 8.7 52 5.3 S 19 26 10 14 - - 0.0
06/03:00pm 18.5 14.6 8.5 52 5.2 S 19 28 10 15 - - 0.0
06/02:30pm 18.2 14.0 7.6 50 5.4 SSW 19 28 10 15 - - 0.0
06/02:00pm 19.4 16.3 8.7 50 5.6 SSW 15 20 8 11 - - 0.0
06/01:30pm 19.3 16.7 9.2 52 5.3 S 13 22 7 12 - - 0.0
06/01:00pm 18.0 14.5 7.1 49 5.5 S 15 24 8 13 - - 0.0
06/12:30pm 19.1 16.0 7.2 46 6.1 S 13 20 7 11 - - 0.0
06/12:00pm 17.6 14.3 6.2 47 5.6 SSE 13 20 7 11 - - 0.0
06/11:30am 16.6 13.7 6.7 52 4.9 S 11 15 6 8 - - 0.0
06/11:00am 17.7 14.8 6.6 48 5.5 SSE 11 15 6 8 - - 0.0
06/10:30am 16.6 14.0 6.1 50 5.1 SE 9 15 5 8 - - 0.0
06/10:00am 15.0 12.8 6.3 56 4.2 SE 7 11 4 6 - - 0.0
06/09:30am 15.3 13.3 6.3 55 4.4 NNE 6 9 3 5 - - 0.0
06/09:00am 14.0 12.7 6.1 59 3.8 WNW 2 4 1 2 - - 0.0
06/08:30am 13.9 12.0 7.4 65 3.2 WSW 7 9 4 5 - - 0.0
06/08:00am 12.9 11.3 7.8 71 2.5 WSW 6 7 3 4 - - 0.0
06/07:30am 12.3 10.5 7.2 71 2.5 WSW 6 9 3 5 - - 0.0
06/07:00am 12.1 9.3 7.0 71 2.5 WSW 11 15 6 8 - - 0.0
06/06:30am 11.8 10.3 6.9 72 2.4 W 4 6 2 3 - - 0.0
06/06:00am 11.8 9.7 6.7 71 2.4 WSW 7 9 4 5 - - 0.0
06/05:30am 11.7 9.3 6.8 72 2.3 WSW 9 13 5 7 - - 0.0
06/05:00am 11.4 9.3 6.7 73 2.2 WNW 7 9 4 5 - - 0.0
06/04:30am 11.1 9.0 6.8 75 2.0 W 7 11 4 6 - - 0.0
06/04:00am 10.7 8.2 6.6 76 1.9 WSW 9 11 5 6 - - 0.0
06/03:30am 10.8 8.4 6.9 77 1.9 WSW 9 11 5 6 - - 0.0
06/03:00am 11.2 9.4 7.1 76 2.0 WSW 6 11 3 6 - - 0.0
06/02:30am 11.3 9.0 7.4 77 1.9 SW 9 15 5 8 - - 0.0
06/02:00am 11.9 9.6 7.4 74 2.2 SW 9 11 5 6 - - 0.0
06/01:30am 11.5 9.6 7.4 76 2.0 WSW 7 9 4 5 - - 0.0
06/01:00am 11.5 9.6 7.4 76 2.0 WSW 7 9 4 5 - - 0.0
06/12:30am 12.2 10.2 6.9 70 2.6 SSW 7 9 4 5 - - 0.0
06/12:00am 12.7 10.0 7.2 69 2.7 SSW 11 15 6 8 - - 0.0
 
Date/Time
EDT
Temp
°C
App
Temp
°C
Dew
Point
°C
Rel
Hum
%
Delta-T
°C
Wind Press
QNH
hPa
Press
MSL
hPa
Rain since
9am
mm
Dir  Spd
km/h
Gust
km/h
Spd
kts
Gust
kts
05/11:30pm 13.0 10.6 7.2 68 2.8 S 9 15 5 8 - - 0.0
05/11:00pm 13.1 10.1 7.8 70 2.6 SSW 13 19 7 10 - - 0.0
05/10:30pm 13.1 9.8 8.2 72 2.4 SSW 15 22 8 12 - - 0.0
05/10:00pm 13.3 9.8 8.6 73 2.4 SSW 17 24 9 13 - - 0.0
05/09:30pm 13.7 10.2 8.7 72 2.5 SSW 17 24 9 13 - - 0.0
05/09:00pm 13.8 10.3 8.8 72 2.5 SSW 17 30 9 16 - - 0.0

Other Formats:

Comma delimited format used in spreadsheet applications
http://www.bom.gov.au/fwo/IDV60801/IDV60801.94846.axf

JavaScript Object Notation format (JSON) in row-major order
http://www.bom.gov.au/fwo/IDV60801/IDV60801.94846.json